Time;durP1;ratioP1;P1;durP2;ratioP2;P2;SDS_P1;SDS_P2;PMS_P1;PMS_P2;Temp;Humidity;BMP_temperature;BMP_pressure;BME280_temperature;BME280_humidity;BME280_pressure;Samples;Min_cycle;Max_cycle;Signal;HPM_P1;HPM_P2
2023/04/02 00:00:10;;;;;;;7.03;2.00;;;13.30;62.10;;;;;;5981765;29;20038;-71
2023/04/02 00:03:14;;;;;;;3.35;2.28;;;13.30;62.20;;;;;;5983309;29;20060;-70
2023/04/02 00:06:38;;;;;;;3.35;2.55;;;13.30;62.20;;;;;;5982100;29;20041;-70
2023/04/02 00:09:40;;;;;;;2.50;2.00;;;13.30;62.10;;;;;;6010780;29;20034;-72
2023/04/02 00:13:02;;;;;;;2.67;2.08;;;13.30;62.10;;;;;;6029631;29;20059;-70
2023/04/02 00:16:07;;;;;;;3.55;1.83;;;13.30;62.10;;;;;;6004538;29;20035;-71
2023/04/02 00:19:15;;;;;;;1.92;1.40;;;13.30;62.10;;;;;;6002723;29;20048;-70
2023/04/02 00:22:19;;;;;;;1.42;0.90;;;13.30;62.20;;;;;;6004329;29;20361;-71
2023/04/02 00:25:19;;;;;;;1.27;0.82;;;13.30;62.10;;;;;;6002833;29;20033;-71
2023/04/02 00:28:23;;;;;;;1.42;1.00;;;13.20;62.00;;;;;;6003968;29;20431;-71
2023/04/02 00:31:24;;;;;;;1.45;0.85;;;13.10;61.90;;;;;;6033436;29;20103;-70
2023/04/02 00:34:35;;;;;;;1.05;0.70;;;13.10;62.80;;;;;;6002452;29;20037;-70
2023/04/02 00:37:41;;;;;;;2.05;0.80;;;13.10;62.10;;;;;;6001958;29;20026;-71
2023/04/02 00:40:41;;;;;;;0.75;0.70;;;13.10;62.00;;;;;;5975461;29;20031;-69
2023/04/02 00:43:45;;;;;;;3.33;0.80;;;13.10;62.00;;;;;;5963305;29;20101;-70
2023/04/02 00:46:48;;;;;;;2.60;1.00;;;13.10;62.00;;;;;;5957322;29;20034;-69
2023/04/02 00:49:56;;;;;;;2.45;1.77;;;13.10;62.00;;;;;;5958250;29;20037;-71
2023/04/02 00:52:59;;;;;;;4.10;1.83;;;13.20;62.10;;;;;;5984104;29;20045;-72
2023/04/02 00:56:02;;;;;;;2.13;1.50;;;13.20;61.90;;;;;;5981017;29;20022;-71
2023/04/02 00:59:03;;;;;;;2.30;1.60;;;13.20;62.00;;;;;;5979210;29;20073;-72
2023/04/02 01:02:25;;;;;;;3.33;1.48;;;13.20;62.10;;;;;;6010254;29;20045;-71
2023/04/02 01:05:25;;;;;;;1.92;1.27;;;13.10;62.10;;;;;;5979217;29;20079;-72
2023/04/02 01:08:53;;;;;;;1.77;1.27;;;13.10;62.20;;;;;;6009661;29;20543;-71
2023/04/02 01:12:12;;;;;;;4.22;1.70;;;13.10;62.30;;;;;;5980220;29;20042;-70
2023/04/02 01:15:25;;;;;;;1.33;1.17;;;13.10;62.30;;;;;;5979263;29;20038;-72
2023/04/02 01:18:36;;;;;;;3.08;1.40;;;13.10;62.30;;;;;;6009417;29;20834;-71
2023/04/02 01:21:59;;;;;;;2.15;1.38;;;13.10;62.30;;;;;;5994417;29;20065;-71
2023/04/02 01:25:03;;;;;;;2.03;1.55;;;13.20;62.20;;;;;;5980963;29;20387;-72
2023/04/02 01:28:18;;;;;;;5.00;1.58;;;13.10;62.20;;;;;;5993863;29;20042;-71
2023/04/02 01:31:20;;;;;;;3.70;1.30;;;13.10;62.20;;;;;;6009471;29;20030;-70
2023/04/02 01:34:24;;;;;;;4.00;1.83;;;13.10;62.30;;;;;;6009411;29;20116;-69
2023/04/02 01:37:48;;;;;;;4.80;2.38;;;13.10;62.30;;;;;;6012385;29;20036;-70
2023/04/02 01:41:18;;;;;;;3.30;2.47;;;13.10;62.40;;;;;;6001385;29;20030;-72
2023/04/02 01:44:33;;;;;;;4.63;2.60;;;13.20;62.60;;;;;;5978836;29;20042;-71
2023/04/02 01:47:35;;;;;;;4.50;2.67;;;13.20;62.60;;;;;;5991790;29;20045;-72
2023/04/02 01:50:38;;;;;;;3.65;2.55;;;13.20;62.60;;;;;;5976663;29;20034;-72
2023/04/02 01:53:39;;;;;;;4.97;2.83;;;13.20;62.60;;;;;;5961414;29;20428;-70
2023/04/02 01:56:41;;;;;;;3.85;2.20;;;13.20;62.60;;;;;;5991858;29;20047;-71
2023/04/02 01:59:42;;;;;;;5.50;3.05;;;13.20;62.60;;;;;;5976039;29;20066;-69
2023/04/02 02:02:47;;;;;;;2.40;2.00;;;13.20;62.60;;;;;;5976473;29;20058;-71
2023/04/02 02:05:49;;;;;;;4.53;2.53;;;13.20;62.80;;;;;;5960886;29;20214;-70
2023/04/02 02:09:03;;;;;;;3.90;2.25;;;13.20;62.80;;;;;;5960924;29;20054;-72
2023/04/02 02:12:04;;;;;;;8.48;2.70;;;13.20;62.80;;;;;;5967983;29;20117;-72
2023/04/02 02:15:28;;;;;;;3.40;2.22;;;13.20;62.80;;;;;;5976281;29;20041;-70
2023/04/02 02:18:30;;;;;;;3.58;2.50;;;13.20;62.80;;;;;;5960856;29;20124;-72
2023/04/02 02:22:05;;;;;;;4.32;1.92;;;13.20;62.80;;;;;;5980024;29;20086;-73
2023/04/02 02:25:12;;;;;;;1.98;1.20;;;13.20;62.80;;;;;;5984113;29;20155;-71
2023/04/02 02:28:35;;;;;;;0.53;0.53;;;13.10;62.70;;;;;;6012926;29;20074;-71
2023/04/02 02:31:40;;;;;;;0.65;0.60;;;13.10;62.70;;;;;;5962270;29;20058;-70
2023/04/02 02:34:57;;;;;;;2.55;1.05;;;13.10;62.60;;;;;;5975118;29;20042;-72
2023/04/02 02:38:27;;;;;;;0.98;0.70;;;13.00;62.50;;;;;;5964639;29;20031;-69
2023/04/02 02:41:40;;;;;;;1.67;0.90;;;13.00;62.50;;;;;;5960248;29;20130;-69
2023/04/02 02:44:48;;;;;;;1.45;0.50;;;13.00;62.30;;;;;;6001539;29;20113;-69
2023/04/02 02:47:50;;;;;;;1.50;0.98;;;13.00;62.40;;;;;;6016702;29;20040;-72
2023/04/02 02:50:53;;;;;;;0.88;0.50;;;13.00;62.40;;;;;;6013568;29;20112;-72
2023/04/02 02:54:01;;;;;;;0.65;0.45;;;13.00;62.30;;;;;;6012437;29;20110;-71
2023/04/02 02:57:08;;;;;;;2.13;1.10;;;13.00;62.20;;;;;;6012267;29;20478;-71
2023/04/02 03:00:10;;;;;;;1.63;1.33;;;13.00;62.30;;;;;;5983195;29;20544;-70
2023/04/02 03:03:23;;;;;;;1.67;1.30;;;13.10;62.40;;;;;;5981501;29;20030;-72
2023/04/02 03:06:29;;;;;;;2.03;1.60;;;13.00;62.60;;;;;;6012858;29;20034;-71
2023/04/02 03:09:54;;;;;;;2.90;1.70;;;12.90;62.70;;;;;;5981923;29;20434;-71
2023/04/02 03:13:10;;;;;;;4.72;1.63;;;12.90;62.90;;;;;;5996642;29;20489;-70
2023/04/02 03:16:28;;;;;;;3.10;1.90;;;12.90;63.20;;;;;;6012120;29;20087;-69
2023/04/02 03:19:37;;;;;;;2.30;1.58;;;12.80;63.30;;;;;;6012085;29;20507;-70
2023/04/02 03:22:50;;;;;;;5.45;1.70;;;12.80;63.50;;;;;;5981500;29;20031;-70
2023/04/02 03:26:21;;;;;;;2.65;1.38;;;12.80;63.50;;;;;;5966025;29;20035;-72
2023/04/02 03:29:30;;;;;;;2.85;1.70;;;12.80;63.60;;;;;;5980904;29;20565;-71
2023/04/02 03:32:39;;;;;;;3.72;2.38;;;12.80;63.60;;;;;;6011521;29;20395;-70
2023/04/02 03:35:52;;;;;;;3.05;2.25;;;12.80;63.50;;;;;;5997845;29;20123;-70
2023/04/02 03:39:32;;;;;;;6.50;2.00;;;12.90;63.40;;;;;;5983069;29;20454;-72
2023/04/02 03:42:57;;;;;;;2.77;2.10;;;12.90;63.40;;;;;;5982489;29;20122;-70
2023/04/02 03:46:07;;;;;;;4.68;2.30;;;13.00;63.30;;;;;;6011410;29;20268;-70
2023/04/02 03:49:17;;;;;;;3.88;3.13;;;13.00;63.10;;;;;;6011180;29;20038;-71
2023/04/02 03:52:36;;;;;;;4.78;2.17;;;13.00;63.10;;;;;;6011093;29;20090;-70
2023/04/02 03:55:40;;;;;;;3.88;2.20;;;13.00;63.10;;;;;;6010844;29;20083;-70
2023/04/02 03:58:54;;;;;;;2.80;1.83;;;13.00;63.10;;;;;;5980295;29;20154;-70
2023/04/02 04:02:33;;;;;;;3.75;2.30;;;13.00;63.00;;;;;;5980466;29;20474;-71
2023/04/02 04:05:42;;;;;;;4.68;2.25;;;13.00;63.00;;;;;;5980615;29;20053;-73
2023/04/02 04:08:49;;;;;;;4.22;2.15;;;13.10;63.00;;;;;;5982021;29;20131;-71
2023/04/02 04:12:14;;;;;;;3.40;2.20;;;13.10;63.00;;;;;;5980837;29;20030;-70
2023/04/02 04:15:29;;;;;;;2.50;2.00;;;13.20;63.10;;;;;;5980772;29;20499;-71
2023/04/02 04:18:39;;;;;;;3.58;2.42;;;13.10;63.10;;;;;;5980159;29;20026;-71
2023/04/02 04:21:45;;;;;;;3.97;2.55;;;13.10;63.20;;;;;;5982756;29;20046;-71
2023/04/02 04:24:57;;;;;;;4.47;2.75;;;13.10;63.20;;;;;;5988973;29;20033;-70
2023/04/02 04:28:07;;;;;;;3.38;2.47;;;13.10;63.20;;;;;;6033348;29;20061;-71
2023/04/02 04:31:32;;;;;;;3.17;2.22;;;13.00;63.10;;;;;;6002836;29;20448;-71
2023/04/02 04:34:45;;;;;;;3.38;2.55;;;13.00;63.20;;;;;;6002849;29;20511;-72
2023/04/02 04:37:52;;;;;;;4.28;2.78;;;13.00;63.30;;;;;;6012486;29;20035;-71
2023/04/02 04:41:00;;;;;;;2.95;2.40;;;13.00;63.30;;;;;;6010613;29;20844;-72
2023/04/02 04:44:19;;;;;;;3.90;2.33;;;13.00;63.30;;;;;;5979331;29;20030;-70
2023/04/02 04:47:32;;;;;;;3.97;2.43;;;12.90;63.40;;;;;;6010030;29;20034;-70
2023/04/02 04:50:57;;;;;;;3.47;2.30;;;12.90;63.60;;;;;;6010012;29;20152;-69
2023/04/02 04:53:59;;;;;;;3.60;2.42;;;12.80;63.70;;;;;;5985391;29;20045;-71
2023/04/02 04:57:15;;;;;;;2.65;2.08;;;12.80;63.70;;;;;;5970305;29;20557;-70
2023/04/02 05:00:39;;;;;;;2.75;1.67;;;12.80;63.80;;;;;;5985357;29;20034;-73
2023/04/02 05:03:50;;;;;;;4.47;1.80;;;12.80;63.70;;;;;;6000804;29;20077;-71
2023/04/02 05:07:14;;;;;;;3.40;2.25;;;12.90;63.80;;;;;;5985133;29;20389;-70
2023/04/02 05:10:45;;;;;;;6.35;2.30;;;12.90;63.70;;;;;;5984652;29;20061;-70
2023/04/02 05:13:56;;;;;;;;;;;12.80;63.70;;;;;;5985082;29;20053;-70
2023/04/02 05:17:26;;;;;;;3.08;2.00;;;12.80;63.90;;;;;;5999688;29;19980;-71
2023/04/02 05:20:36;;;;;;;4.38;1.83;;;12.80;63.80;;;;;;5984925;29;20121;-70
2023/04/02 05:23:56;;;;;;;2.75;2.10;;;12.80;63.90;;;;;;5984769;29;20107;-72
2023/04/02 05:27:02;;;;;;;3.60;2.58;;;12.70;63.90;;;;;;5999772;29;20041;-70
2023/04/02 05:30:23;;;;;;;3.72;2.50;;;12.70;63.90;;;;;;5958460;29;20680;-73
2023/04/02 05:33:35;;;;;;;2.95;2.08;;;12.70;64.10;;;;;;5968802;29;20359;-72
2023/04/02 05:36:40;;;;;;;5.53;2.70;;;12.70;64.10;;;;;;5989401;29;20049;-71
2023/04/02 05:39:44;;;;;;;3.85;2.45;;;12.70;64.10;;;;;;6014707;29;20117;-70
2023/04/02 05:42:49;;;;;;;4.22;2.35;;;12.70;64.20;;;;;;6032807;29;20034;-69
2023/04/02 05:45:57;;;;;;;3.97;2.17;;;12.70;65.10;;;;;;6032630;29;20034;-70
2023/04/02 05:48:59;;;;;;;4.35;2.30;;;12.70;64.20;;;;;;6001047;29;20678;-71
2023/04/02 05:52:04;;;;;;;3.45;2.30;;;12.70;64.10;;;;;;6001882;29;20378;-71
2023/04/02 05:55:11;;;;;;;3.92;2.65;;;12.70;64.80;;;;;;6029904;29;20026;-70
2023/04/02 05:58:38;;;;;;;4.28;3.13;;;12.70;64.00;;;;;;5982526;29;20030;-72
2023/04/02 06:01:59;;;;;;;8.45;3.38;;;12.80;64.00;;;;;;5982437;29;20468;-71
2023/04/02 06:05:13;;;;;;;5.30;2.90;;;12.80;63.90;;;;;;5982818;29;20117;-70
2023/04/02 06:08:21;;;;;;;6.53;3.10;;;12.60;63.50;;;;;;5982985;29;20049;-71
2023/04/02 06:11:41;;;;;;;5.93;3.35;;;12.80;63.60;;;;;;6022696;29;20028;-70
2023/04/02 06:14:42;;;;;;;7.00;3.47;;;12.80;63.60;;;;;;6006691;29;20022;-71
2023/04/02 06:17:50;;;;;;;5.57;2.80;;;12.90;63.60;;;;;;6005590;29;20523;-71
2023/04/02 06:20:52;;;;;;;5.03;3.30;;;12.90;63.50;;;;;;6036678;29;20034;-70
2023/04/02 06:24:00;;;;;;;5.35;3.13;;;12.90;63.40;;;;;;6036240;29;20042;-71
2023/04/02 06:27:07;;;;;;;4.40;2.92;;;13.00;63.40;;;;;;6036133;29;20075;-70
2023/04/02 06:30:20;;;;;;;6.28;3.10;;;13.00;63.30;;;;;;6037504;29;20208;-71
2023/04/02 06:33:23;;;;;;;4.57;3.17;;;13.10;63.00;;;;;;6039844;29;20030;-70
2023/04/02 06:36:26;;;;;;;4.95;2.95;;;13.20;62.80;;;;;;6009152;29;20033;-71
2023/04/02 06:39:27;;;;;;;8.05;2.67;;;13.20;62.60;;;;;;5999294;29;20034;-71
2023/04/02 06:42:41;;;;;;;3.17;2.10;;;13.30;62.40;;;;;;6013318;29;20038;-72
2023/04/02 06:46:19;;;;;;;3.42;2.20;;;13.40;63.10;;;;;;6013694;29;20041;-73
2023/04/02 06:50:18;;;;;;;3.00;2.03;;;13.40;61.70;;;;;;5990709;29;20068;-69
2023/04/02 06:53:30;;;;;;;3.90;2.13;;;13.50;61.80;;;;;;5979521;29;20042;-71
2023/04/02 06:56:52;;;;;;;3.80;2.42;;;13.60;61.60;;;;;;6012369;29;20504;-71
2023/04/02 07:00:01;;;;;;;2.72;1.95;;;13.60;61.10;;;;;;5981354;29;20038;-71
2023/04/02 07:03:05;;;;;;;4.10;1.60;;;13.70;60.90;;;;;;5982981;29;20038;-70
2023/04/02 07:06:14;;;;;;;3.55;1.92;;;13.70;60.60;;;;;;6012073;29;20340;-72
2023/04/02 07:09:15;;;;;;;2.75;1.55;;;13.80;60.40;;;;;;5995476;29;20360;-70
2023/04/02 07:12:23;;;;;;;4.30;1.80;;;13.90;60.20;;;;;;6028631;29;20036;-70
2023/04/02 07:15:24;;;;;;;4.20;2.63;;;14.00;59.90;;;;;;6004267;29;20033;-72
2023/04/02 07:18:31;;;;;;;2.88;2.03;;;14.20;59.80;;;;;;6003841;29;20034;-71
2023/04/02 07:21:34;;;;;;;3.25;2.13;;;14.30;59.50;;;;;;6034764;29;20072;-70
2023/04/02 07:24:35;;;;;;;2.17;1.63;;;14.40;59.20;;;;;;6034792;29;20030;-72
2023/04/02 07:27:36;;;;;;;2.72;1.73;;;14.50;59.10;;;;;;6003643;29;20034;-71
2023/04/02 07:30:37;;;;;;;3.42;1.98;;;14.60;58.90;;;;;;6003852;29;20393;-70
2023/04/02 07:33:38;;;;;;;4.00;2.10;;;14.70;58.70;;;;;;5997571;29;20087;-72
2023/04/02 07:36:39;;;;;;;6.57;2.28;;;14.80;58.50;;;;;;5982648;29;20121;-72
2023/04/02 07:39:40;;;;;;;2.83;2.00;;;14.90;58.40;;;;;;6002232;29;20037;-69
2023/04/02 07:42:41;;;;;;;2.63;1.83;;;14.90;58.30;;;;;;6003712;29;20037;-72
2023/04/02 07:45:42;;;;;;;2.45;2.00;;;15.00;58.10;;;;;;5981009;29;20038;-71
2023/04/02 07:48:44;;;;;;;4.30;2.15;;;15.00;57.80;;;;;;5959716;29;20027;-71
2023/04/02 07:51:44;;;;;;;2.28;1.67;;;15.10;57.90;;;;;;5960100;29;20126;-70
2023/04/02 07:54:46;;;;;;;2.53;1.55;;;15.00;57.70;;;;;;5960149;29;20027;-72
2023/04/02 07:57:49;;;;;;;2.78;2.10;;;15.20;57.60;;;;;;5959671;29;20083;-71
2023/04/02 08:00:50;;;;;;;3.40;1.77;;;15.30;57.40;;;;;;5960090;29;20045;-70
2023/04/02 08:03:53;;;;;;;3.95;1.67;;;15.40;57.20;;;;;;5959895;29;20111;-71
2023/04/02 08:06:54;;;;;;;2.50;1.35;;;15.40;56.90;;;;;;5963558;29;20034;-72
2023/04/02 08:09:55;;;;;;;2.58;1.63;;;15.50;56.60;;;;;;6011096;29;20171;-72
2023/04/02 08:12:55;;;;;;;2.58;1.70;;;15.50;56.50;;;;;;6002579;29;20077;-70
2023/04/02 08:16:01;;;;;;;2.50;1.50;;;15.50;56.30;;;;;;6005065;29;20461;-70
2023/04/02 08:19:02;;;;;;;4.22;1.70;;;15.50;56.00;;;;;;6004411;29;20041;-72
2023/04/02 08:22:03;;;;;;;4.75;1.50;;;15.60;56.60;;;;;;6004532;29;20117;-72
2023/04/02 08:25:04;;;;;;;4.78;1.20;;;15.70;55.80;;;;;;6004599;29;20078;-70
2023/04/02 08:28:05;;;;;;;2.22;1.35;;;15.80;55.60;;;;;;6003215;29;20029;-71
2023/04/02 08:31:07;;;;;;;0.75;0.73;;;15.80;55.20;;;;;;6017078;29;20342;-70
2023/04/02 08:34:08;;;;;;;1.30;1.20;;;15.70;54.90;;;;;;5982116;29;20038;-70
2023/04/02 08:37:11;;;;;;;1.55;1.25;;;15.60;54.90;;;;;;5982615;29;20034;-71
2023/04/02 08:40:37;;;;;;;0.77;0.70;;;15.50;55.00;;;;;;6003975;29;20042;-71
2023/04/02 08:43:39;;;;;;;1.13;0.73;;;15.50;54.90;;;;;;6004056;29;20034;-70
2023/04/02 08:47:03;;;;;;;1.15;0.70;;;15.50;54.50;;;;;;6017972;29;20030;-70
2023/04/02 08:50:21;;;;;;;0.70;0.70;;;15.50;54.40;;;;;;6002399;29;20062;-71
2023/04/02 08:53:27;;;;;;;2.10;0.90;;;15.50;53.90;;;;;;6004569;29;20038;-70
2023/04/02 08:56:39;;;;;;;0.95;0.77;;;15.60;53.80;;;;;;6020773;29;20038;-70
2023/04/02 08:59:42;;;;;;;0.82;0.63;;;15.60;53.70;;;;;;5980264;29;20053;-71
2023/04/02 09:02:50;;;;;;;0.50;0.50;;;15.70;53.50;;;;;;5981637;29;20094;-70
2023/04/02 09:05:52;;;;;;;1.23;0.70;;;15.80;53.10;;;;;;5981888;29;20105;-70
2023/04/02 09:08:54;;;;;;;5.00;0.82;;;15.80;53.10;;;;;;6010401;29;20465;-71
2023/04/02 09:12:02;;;;;;;0.63;0.63;;;15.90;52.80;;;;;;6022924;29;20053;-73
2023/04/02 09:15:10;;;;;;;;;;;15.90;52.90;;;;;;6033314;29;20034;-70
2023/04/02 09:18:15;;;;;;;0.65;0.65;;;15.90;52.80;;;;;;6032186;29;20609;-71
2023/04/02 09:21:29;;;;;;;2.75;1.02;;;15.90;52.50;;;;;;6032510;29;20070;-70
2023/04/02 09:24:30;;;;;;;1.13;0.60;;;15.80;52.40;;;;;;6032913;29;20030;-72
2023/04/02 09:27:35;;;;;;;1.00;0.60;;;15.70;52.50;;;;;;5985665;29;20023;-70
2023/04/02 09:30:59;;;;;;;3.15;1.00;;;15.80;52.70;;;;;;5981394;29;20489;-69
2023/04/02 09:34:00;;;;;;;0.43;0.43;;;15.90;52.60;;;;;;5987100;29;20041;-72
2023/04/02 09:37:24;;;;;;;1.10;0.60;;;15.90;52.40;;;;;;5983472;29;20026;-70
2023/04/02 09:40:28;;;;;;;2.85;0.63;;;15.90;52.30;;;;;;5981099;29;20114;-71
2023/04/02 09:43:34;;;;;;;0.98;0.60;;;15.90;52.40;;;;;;5980908;29;20455;-70
2023/04/02 09:46:35;;;;;;;1.08;0.70;;;15.90;52.30;;;;;;5980404;29;20037;-70
2023/04/02 09:49:38;;;;;;;2.38;0.80;;;16.00;52.10;;;;;;5980104;29;20532;-72
2023/04/02 09:52:39;;;;;;;1.08;0.40;;;16.00;51.80;;;;;;5980440;29;20054;-70
2023/04/02 09:55:40;;;;;;;1.92;0.30;;;16.00;51.70;;;;;;5979534;29;20523;-70
2023/04/02 09:58:43;;;;;;;0.75;0.32;;;16.10;51.80;;;;;;6009480;29;20378;-70
2023/04/02 10:01:53;;;;;;;2.05;0.40;;;16.20;51.40;;;;;;6009533;29;20046;-72
2023/04/02 10:04:54;;;;;;;0.57;0.28;;;16.40;51.20;;;;;;6009796;29;20034;-70
2023/04/02 10:08:14;;;;;;;0.57;0.20;;;16.40;51.00;;;;;;6009555;29;20057;-72
2023/04/02 10:11:28;;;;;;;0.40;0.35;;;16.50;50.70;;;;;;5988241;29;20086;-72
2023/04/02 10:14:36;;;;;;;0.43;0.32;;;16.60;50.60;;;;;;6001775;29;20396;-71
2023/04/02 10:17:37;;;;;;;0.70;0.40;;;16.50;50.70;;;;;;6001529;29;20368;-72
2023/04/02 10:20:41;;;;;;;0.40;0.30;;;16.50;50.70;;;;;;6032192;29;20034;-71
2023/04/02 10:23:43;;;;;;;0.38;0.38;;;16.50;50.60;;;;;;5983591;29;20034;-71
2023/04/02 10:27:05;;;;;;;1.52;0.50;;;16.40;50.80;;;;;;6009561;29;20119;-72
2023/04/02 10:30:14;;;;;;;0.20;0.20;;;16.60;50.70;;;;;;5979943;29;20151;-71
2023/04/02 10:33:28;;;;;;;0.82;0.30;;;16.70;50.40;;;;;;6009632;29;20035;-72
2023/04/02 10:36:50;;;;;;;0.20;0.20;;;16.90;50.10;;;;;;5979885;29;20153;-71
2023/04/02 10:40:24;;;;;;;0.57;0.35;;;17.00;49.70;;;;;;6030414;29;20518;-71
2023/04/02 10:43:52;;;;;;;0.25;0.20;;;17.20;49.30;;;;;;5985552;29;20489;-71
2023/04/02 10:47:04;;;;;;;0.97;0.50;;;17.50;48.60;;;;;;5980251;29;20490;-71
2023/04/02 10:50:24;;;;;;;0.70;0.30;;;17.80;48.20;;;;;;5979759;29;20037;-71
2023/04/02 10:53:43;;;;;;;0.20;0.20;;;18.00;47.00;;;;;;5981901;29;20176;-71
2023/04/02 10:56:45;;;;;;;0.95;0.47;;;18.20;46.40;;;;;;5987331;29;20036;-70
2023/04/02 10:59:53;;;;;;;1.67;0.30;;;18.20;45.80;;;;;;5970376;29;20046;-70
2023/04/02 11:03:04;;;;;;;0.30;0.30;;;18.20;45.90;;;;;;5966833;29;20042;-71
2023/04/02 11:06:19;;;;;;;0.85;0.60;;;18.10;46.10;;;;;;5980115;29;20298;-72
2023/04/02 11:09:26;;;;;;;0.63;0.47;;;18.00;46.60;;;;;;5979691;29;20526;-72
2023/04/02 11:12:45;;;;;;;2.80;0.82;;;17.80;47.40;;;;;;5996874;29;20120;-71
2023/04/02 11:15:46;;;;;;;0.70;0.32;;;17.60;48.10;;;;;;6002603;29;20026;-71
2023/04/02 11:19:22;;;;;;;6.00;0.50;;;17.50;48.60;;;;;;5993289;29;20833;-71
2023/04/02 11:22:24;;;;;;;1.20;0.63;;;17.30;49.00;;;;;;5927246;29;20030;-72
2023/04/02 11:25:25;;;;;;;1.77;0.70;;;17.10;49.10;;;;;;5957243;29;20046;-71
2023/04/02 11:28:29;;;;;;;2.45;0.80;;;17.20;49.30;;;;;;5941965;29;20121;-71
2023/04/02 11:31:30;;;;;;;0.52;0.40;;;17.20;49.20;;;;;;5957270;29;20130;-70
2023/04/02 11:34:48;;;;;;;0.28;0.20;;;17.10;49.40;;;;;;5957312;29;20082;-70
2023/04/02 11:37:49;;;;;;;0.90;0.35;;;17.00;49.60;;;;;;5947719;29;20044;-71
2023/04/02 11:40:57;;;;;;;0.82;0.45;;;17.10;49.60;;;;;;5964338;29;20103;-71
2023/04/02 11:44:01;;;;;;;0.45;0.40;;;17.30;49.40;;;;;;5947117;29;20413;-71
2023/04/02 11:47:16;;;;;;;1.63;0.60;;;17.40;49.10;;;;;;5956246;29;20419;-73
2023/04/02 11:50:28;;;;;;;0.52;0.30;;;17.30;48.90;;;;;;5956228;29;20047;-72
2023/04/02 11:53:34;;;;;;;1.27;0.32;;;17.30;49.00;;;;;;5940625;29;20031;-71
2023/04/02 11:56:48;;;;;;;0.57;0.40;;;17.20;48.80;;;;;;5974031;29;20042;-72
2023/04/02 12:00:10;;;;;;;0.57;0.50;;;17.10;49.10;;;;;;5980606;29;20483;-72
2023/04/02 12:03:31;;;;;;;1.35;0.68;;;17.00;49.30;;;;;;6010769;29;20129;-71
2023/04/02 12:06:50;;;;;;;1.15;0.60;;;16.90;49.60;;;;;;6011228;29;20425;-72
2023/04/02 12:09:57;;;;;;;1.45;0.20;;;16.80;49.80;;;;;;5982118;29;20033;-72
2023/04/02 12:12:57;;;;;;;0.52;0.45;;;16.80;49.70;;;;;;6001106;29;20062;-71
2023/04/02 12:15:58;;;;;;;1.45;0.43;;;16.80;49.60;;;;;;5989168;29;20476;-70
2023/04/02 12:19:00;;;;;;;0.30;0.20;;;16.80;49.40;;;;;;5982039;29;20446;-72
2023/04/02 12:22:01;;;;;;;0.40;0.30;;;16.90;49.30;;;;;;6010924;29;20124;-72
2023/04/02 12:25:23;;;;;;;1.27;0.63;;;16.90;49.10;;;;;;5980346;29;20049;-72
2023/04/02 12:28:27;;;;;;;2.80;1.40;;;17.00;49.10;;;;;;6010295;29;20038;-72
2023/04/02 12:31:28;;;;;;;0.77;0.70;;;17.40;48.80;;;;;;6010511;29;20475;-71
2023/04/02 12:34:30;;;;;;;0.90;0.45;;;18.30;46.90;;;;;;5981562;29;20042;-71
2023/04/02 12:37:31;;;;;;;2.60;1.05;;;19.40;45.20;;;;;;5985517;29;20018;-72
2023/04/02 12:40:32;;;;;;;1.13;0.73;;;20.60;42.90;;;;;;6005418;29;20037;-72
2023/04/02 12:43:36;;;;;;;0.57;0.50;;;21.80;41.00;;;;;;6009451;29;20064;-72
2023/04/02 12:46:38;;;;;;;1.48;0.50;;;22.40;39.30;;;;;;5973641;29;20441;-72
2023/04/02 12:49:42;;;;;;;2.05;0.60;;;22.60;38.40;;;;;;5974003;29;20057;-73
2023/04/02 12:52:45;;;;;;;1.00;0.35;;;22.50;38.70;;;;;;5981705;29;20082;-72
2023/04/02 12:55:51;;;;;;;0.63;0.40;;;21.90;39.60;;;;;;6009978;29;20491;-73
2023/04/02 12:59:00;;;;;;;0.50;0.40;;;21.00;41.20;;;;;;5981942;29;20042;-72
2023/04/02 13:02:15;;;;;;;0.63;0.40;;;20.30;42.70;;;;;;6009876;29;20478;-72
2023/04/02 13:05:35;;;;;;;0.93;0.20;;;19.80;43.50;;;;;;5993865;29;20440;-72
2023/04/02 13:08:42;;;;;;;4.90;0.57;;;19.20;44.20;;;;;;5993692;29;20034;-72
2023/04/02 13:11:43;;;;;;;0.55;0.55;;;18.80;44.20;;;;;;5991415;29;20117;-72
2023/04/02 13:14:44;;;;;;;0.77;0.50;;;18.40;44.80;;;;;;6002897;29;20030;-73
2023/04/02 13:17:47;;;;;;;0.30;0.30;;;18.70;45.10;;;;;;6002292;29;20084;-72
2023/04/02 13:20:57;;;;;;;1.13;0.50;;;19.20;43.90;;;;;;6031735;29;20041;-72
2023/04/02 13:23:57;;;;;;;0.25;0.25;;;19.10;43.30;;;;;;6002156;29;20441;-72
2023/04/02 13:27:01;;;;;;;1.45;0.30;;;19.50;43.00;;;;;;6002636;29;20038;-73
2023/04/02 13:30:24;;;;;;;0.50;0.47;;;20.70;41.00;;;;;;6001054;29;20619;-72
2023/04/02 13:33:25;;;;;;;0.10;0.10;;;21.80;39.10;;;;;;6002668;29;20109;-72
2023/04/02 13:36:28;;;;;;;0.30;0.22;;;22.60;37.30;;;;;;6000997;29;20049;-73
2023/04/02 13:39:29;;;;;;;1.00;0.28;;;22.30;37.20;;;;;;5982017;29;20041;-72
2023/04/02 13:42:30;;;;;;;0.30;0.28;;;21.60;38.10;;;;;;5980088;29;20057;-73
2023/04/02 13:45:36;;;;;;;0.50;0.50;;;21.10;39.10;;;;;;5978367;29;20034;-72
2023/04/02 13:48:38;;;;;;;0.43;0.40;;;20.50;39.70;;;;;;5980476;29;20037;-72
2023/04/02 13:51:46;;;;;;;0.52;0.28;;;19.90;40.70;;;;;;5978328;29;20030;-72
2023/04/02 13:54:54;;;;;;;0.52;0.50;;;19.40;41.50;;;;;;5978484;29;20039;-71
2023/04/02 13:57:55;;;;;;;5.80;0.93;;;18.90;42.40;;;;;;5969888;29;20035;-70
2023/04/02 14:00:56;;;;;;;2.77;0.80;;;18.60;43.30;;;;;;5917218;29;1187624;-71
2023/04/02 14:03:58;;;;;;;1.05;0.60;;;18.40;44.30;;;;;;5957454;29;20318;-71
2023/04/02 14:07:14;;;;;;;0.70;0.50;;;18.00;45.10;;;;;;5961959;29;20541;-71
2023/04/02 14:10:26;;;;;;;0.95;0.28;;;17.80;45.70;;;;;;5993328;29;20053;-71
2023/04/02 14:13:27;;;;;;;0.82;0.30;;;17.70;46.10;;;;;;6001323;29;20065;-72
2023/04/02 14:16:39;;;;;;;0.30;0.30;;;17.60;46.40;;;;;;6003331;29;20470;-71
2023/04/02 14:20:01;;;;;;;0.65;0.40;;;17.70;46.60;;;;;;6006800;29;20590;-71
2023/04/02 14:23:24;;;;;;;0.77;0.43;;;17.90;46.40;;;;;;6007378;29;20113;-72
2023/04/02 14:26:46;;;;;;;0.82;0.50;;;18.20;45.90;;;;;;6021210;29;20044;-72
2023/04/02 14:29:53;;;;;;;0.85;0.40;;;18.20;45.60;;;;;;6005635;29;20211;-72
2023/04/02 14:33:19;;;;;;;1.83;0.57;;;18.30;45.40;;;;;;6005778;29;20053;-72
2023/04/02 14:36:27;;;;;;;0.40;0.40;;;18.30;45.30;;;;;;6007341;29;20122;-74
2023/04/02 14:39:57;;;;;;;1.23;0.30;;;18.20;45.10;;;;;;5988485;29;20034;-71
2023/04/02 14:43:09;;;;;;;1.45;0.40;;;18.10;45.40;;;;;;5984140;29;20038;-73
2023/04/02 14:46:10;;;;;;;0.80;0.50;;;17.90;45.50;;;;;;5994596;29;20048;-72
2023/04/02 14:49:20;;;;;;;0.73;0.47;;;17.80;45.70;;;;;;5990674;29;20050;-73
2023/04/02 14:52:24;;;;;;;0.20;0.20;;;17.90;45.80;;;;;;5990831;29;20484;-72
2023/04/02 14:55:38;;;;;;;0.80;0.32;;;17.90;45.70;;;;;;5966937;29;20033;-71
2023/04/02 14:58:47;;;;;;;0.82;0.52;;;17.80;45.80;;;;;;5983997;29;20042;-73
2023/04/02 15:02:17;;;;;;;0.43;0.30;;;17.70;45.90;;;;;;5982742;29;20026;-72
2023/04/02 15:05:20;;;;;;;0.40;0.40;;;17.50;46.10;;;;;;5985766;29;20042;-73
2023/04/02 15:08:26;;;;;;;0.63;0.47;;;17.30;46.30;;;;;;6015531;29;20094;-71
2023/04/02 15:11:35;;;;;;;1.00;0.38;;;17.10;46.80;;;;;;6015518;29;20126;-72
2023/04/02 15:14:43;;;;;;;1.35;0.60;;;16.90;47.60;;;;;;6013238;29;20348;-71
2023/04/02 15:17:44;;;;;;;1.35;0.30;;;16.70;48.40;;;;;;5983762;29;20480;-73
2023/04/02 15:21:01;;;;;;;0.38;0.38;;;16.60;49.10;;;;;;6013850;29;20030;-71
2023/04/02 15:24:26;;;;;;;0.65;0.40;;;16.40;49.60;;;;;;5983569;29;20361;-71
2023/04/02 15:27:48;;;;;;;1.73;0.43;;;16.30;49.90;;;;;;6012273;29;20042;-72
2023/04/02 15:30:57;;;;;;;1.35;0.60;;;16.10;50.60;;;;;;5982292;29;20034;-71
2023/04/02 15:34:26;;;;;;;1.17;0.50;;;16.00;50.90;;;;;;5983556;29;20148;-72
2023/04/02 15:37:49;;;;;;;0.43;0.40;;;15.90;51.10;;;;;;6011213;29;20106;-72
2023/04/02 15:40:53;;;;;;;0.65;0.50;;;15.80;51.70;;;;;;6006045;29;20045;-71
2023/04/02 15:44:03;;;;;;;1.00;0.43;;;15.80;52.80;;;;;;6005811;29;20074;-72
2023/04/02 15:47:25;;;;;;;2.88;0.70;;;15.70;53.20;;;;;;6007011;29;20472;-73
2023/04/02 15:50:28;;;;;;;0.88;0.52;;;15.60;53.40;;;;;;6005168;29;20034;-72
2023/04/02 15:53:47;;;;;;;1.15;0.60;;;15.60;53.70;;;;;;6006049;29;20022;-73
2023/04/02 15:57:15;;;;;;;0.73;0.40;;;15.60;54.00;;;;;;5988609;29;20026;-73
2023/04/02 16:00:29;;;;;;;1.48;0.88;;;15.60;54.10;;;;;;5982602;29;20137;-73
2023/04/02 16:03:55;;;;;;;1.30;0.45;;;15.60;54.30;;;;;;5982793;29;20718;-72
2023/04/02 16:07:27;;;;;;;0.65;0.57;;;15.50;54.10;;;;;;6011671;29;20562;-73
2023/04/02 16:10:34;;;;;;;1.75;0.77;;;15.50;54.00;;;;;;6015231;29;20349;-72
2023/04/02 16:13:38;;;;;;;0.90;0.68;;;15.20;54.00;;;;;;6005828;29;20022;-72
2023/04/02 16:16:45;;;;;;;2.78;1.40;;;15.30;54.00;;;;;;6005441;29;20121;-72
2023/04/02 16:19:51;;;;;;;2.28;0.90;;;15.30;53.90;;;;;;6005570;29;20478;-73
2023/04/02 16:23:01;;;;;;;0.85;0.55;;;15.30;53.90;;;;;;6006267;29;20026;-73
2023/04/02 16:26:44;;;;;;;1.30;0.70;;;15.40;53.70;;;;;;6034284;29;20572;-73
2023/04/02 16:30:13;;;;;;;0.40;0.32;;;15.40;53.60;;;;;;6000652;29;20132;-72